Time;durP1;ratioP1;P1;durP2;ratioP2;P2;SDS_P1;SDS_P2;PMS_P1;PMS_P2;Temp;Humidity;BMP_temperature;BMP_pressure;BME280_temperature;BME280_humidity;BME280_pressure;Samples;Min_cycle;Max_cycle;Signal;HPM_P1;HPM_P2
2023/11/15 00:00:32;;;;;;;16.85;4.55;;;9.50;99.90;;;;;;4985998;28;20509;-78
2023/11/15 00:02:58;;;;;;;3.42;2.17;;;9.50;99.90;;;;;;4983325;28;20054;-77
2023/11/15 00:05:24;;;;;;;10.75;3.35;;;9.50;99.90;;;;;;4967409;28;20038;-77
2023/11/15 00:07:49;;;;;;;10.38;3.17;;;9.50;99.90;;;;;;4983230;28;20505;-78
2023/11/15 00:10:15;;;;;;;6.40;2.45;;;9.50;99.90;;;;;;4967228;28;20033;-77
2023/11/15 00:12:42;;;;;;;15.60;4.32;;;9.50;99.90;;;;;;4993066;28;20033;-77
2023/11/15 00:15:08;;;;;;;9.90;4.40;;;9.50;99.90;;;;;;4991790;28;20037;-77
2023/11/15 00:17:33;;;;;;;12.00;3.55;;;9.50;99.90;;;;;;4982864;28;20060;-77
2023/11/15 00:20:03;;;;;;;9.73;2.80;;;9.60;99.90;;;;;;5001429;28;20477;-77
2023/11/15 00:22:29;;;;;;;8.27;3.40;;;9.50;99.90;;;;;;4981430;28;20045;-77
2023/11/15 00:24:55;;;;;;;10.35;2.40;;;9.50;99.90;;;;;;4993173;28;20026;-77
2023/11/15 00:27:21;;;;;;;6.93;2.20;;;9.60;99.90;;;;;;4982619;28;20553;-77
2023/11/15 00:29:47;;;;;;;4.13;1.65;;;9.60;99.90;;;;;;4983623;28;20027;-78
2023/11/15 00:32:13;;;;;;;11.40;2.08;;;9.50;99.90;;;;;;5014032;28;20517;-77
2023/11/15 00:34:39;;;;;;;5.72;1.95;;;9.50;99.90;;;;;;4995494;28;20023;-77
2023/11/15 00:37:06;;;;;;;4.55;1.70;;;9.50;99.90;;;;;;4980124;28;20121;-77
2023/11/15 00:39:32;;;;;;;7.30;2.38;;;9.50;99.90;;;;;;4967177;28;20081;-77
2023/11/15 00:41:58;;;;;;;6.88;1.65;;;9.40;99.90;;;;;;4981347;28;20153;-77
2023/11/15 00:44:24;;;;;;;13.38;2.90;;;9.40;99.90;;;;;;4967110;28;20514;-77
2023/11/15 00:46:49;;;;;;;13.35;2.70;;;9.50;99.90;;;;;;4967740;28;20035;-77
2023/11/15 00:49:15;;;;;;;4.20;1.52;;;9.50;99.90;;;;;;4984246;28;20101;-77
2023/11/15 00:51:41;;;;;;;6.90;2.10;;;9.50;99.90;;;;;;4982739;28;20045;-76
2023/11/15 00:54:06;;;;;;;10.00;2.45;;;9.50;99.90;;;;;;4997732;28;20045;-78
2023/11/15 00:56:32;;;;;;;8.23;1.67;;;9.50;99.90;;;;;;4966878;28;20057;-77
2023/11/15 00:58:58;;;;;;;8.55;2.30;;;9.40;99.90;;;;;;4997362;28;20113;-78
2023/11/15 01:01:25;;;;;;;3.72;1.88;;;9.40;99.90;;;;;;4966633;28;20124;-77
2023/11/15 01:03:58;;;;;;;8.25;1.88;;;9.40;99.90;;;;;;4967628;28;20069;-78
2023/11/15 01:06:26;;;;;;;7.53;1.80;;;9.40;99.90;;;;;;5013201;28;20084;-78
2023/11/15 01:08:52;;;;;;;2.75;1.52;;;9.40;99.90;;;;;;4982009;28;20031;-78
2023/11/15 01:11:18;;;;;;;4.63;1.60;;;9.40;99.90;;;;;;4966620;28;20042;-77
2023/11/15 01:13:46;;;;;;;5.22;1.90;;;9.40;99.90;;;;;;4986165;28;20046;-78
2023/11/15 01:16:12;;;;;;;6.65;1.80;;;9.40;99.90;;;;;;4996304;28;20070;-78
2023/11/15 01:18:37;;;;;;;10.30;2.17;;;9.40;99.90;;;;;;4982897;28;20125;-78
2023/11/15 01:21:05;;;;;;;3.50;2.15;;;9.40;99.90;;;;;;4983095;28;20201;-78
2023/11/15 01:23:30;;;;;;;7.82;2.28;;;9.40;99.90;;;;;;4967760;28;20038;-79
2023/11/15 01:25:56;;;;;;;5.65;2.05;;;9.40;99.90;;;;;;4969281;28;20507;-78
2023/11/15 01:28:22;;;;;;;7.25;2.55;;;9.40;99.90;;;;;;4982121;28;20041;-78
2023/11/15 01:30:48;;;;;;;13.43;2.88;;;9.50;99.90;;;;;;4982676;28;20296;-79
2023/11/15 01:33:14;;;;;;;14.10;4.90;;;9.50;99.90;;;;;;4981260;28;20041;-79
2023/11/15 01:35:39;;;;;;;19.75;6.13;;;9.50;99.90;;;;;;4997013;28;20058;-78
2023/11/15 01:38:06;;;;;;;9.30;4.97;;;9.50;99.90;;;;;;4966137;28;20058;-79
2023/11/15 01:40:34;;;;;;;9.50;4.70;;;9.50;99.90;;;;;;4983523;28;20590;-79
2023/11/15 01:42:59;;;;;;;13.23;5.00;;;9.60;99.90;;;;;;4968813;28;20045;-77
2023/11/15 01:45:25;;;;;;;13.43;5.70;;;9.60;99.90;;;;;;4985587;28;20035;-78
2023/11/15 01:47:51;;;;;;;15.40;5.90;;;9.60;99.90;;;;;;4981993;28;20030;-78
2023/11/15 01:50:17;;;;;;;15.85;5.32;;;9.60;99.90;;;;;;5002456;28;20129;-78
2023/11/15 01:52:44;;;;;;;13.00;4.63;;;9.60;99.90;;;;;;4970381;28;20026;-78
2023/11/15 01:55:12;;;;;;;26.42;4.32;;;9.70;99.90;;;;;;5005049;28;20501;-79
2023/11/15 01:57:38;;;;;;;21.20;7.47;;;9.70;99.90;;;;;;4969727;28;20030;-79
2023/11/15 02:00:09;;;;;;;18.98;6.07;;;9.70;99.90;;;;;;4970901;28;20077;-79
2023/11/15 02:02:36;;;;;;;15.98;5.35;;;9.70;99.90;;;;;;4970701;28;20045;-79
2023/11/15 02:05:02;;;;;;;9.82;4.50;;;9.70;99.90;;;;;;4970695;28;20765;-78
2023/11/15 02:07:28;;;;;;;18.27;6.25;;;9.70;99.90;;;;;;4987404;28;20018;-79
2023/11/15 02:09:55;;;;;;;14.90;7.07;;;9.70;99.90;;;;;;4998349;28;20053;-79
2023/11/15 02:12:21;;;;;;;15.55;5.18;;;9.70;99.90;;;;;;4986017;28;20042;-78
2023/11/15 02:14:46;;;;;;;15.82;6.38;;;9.80;99.90;;;;;;4986003;28;20038;-77
2023/11/15 02:17:13;;;;;;;6.97;3.53;;;9.80;99.90;;;;;;4984357;28;20023;-78
2023/11/15 02:19:38;;;;;;;18.23;7.95;;;9.80;99.90;;;;;;4985730;28;20035;-78
2023/11/15 02:22:04;;;;;;;16.95;7.07;;;9.80;99.90;;;;;;4970587;28;20042;-78
2023/11/15 02:24:30;;;;;;;20.80;7.40;;;9.80;99.90;;;;;;4970119;28;20118;-78
2023/11/15 02:26:56;;;;;;;12.88;6.10;;;9.90;99.90;;;;;;4979276;28;20531;-78
2023/11/15 02:29:22;;;;;;;18.45;7.88;;;9.90;99.90;;;;;;4997219;28;20089;-78
2023/11/15 02:31:47;;;;;;;16.75;7.75;;;9.90;99.90;;;;;;4982621;28;20521;-78
2023/11/15 02:34:13;;;;;;;17.35;7.88;;;9.90;99.90;;;;;;4984671;28;20033;-78
2023/11/15 02:36:39;;;;;;;18.13;7.50;;;9.80;99.90;;;;;;4984783;28;20360;-78
2023/11/15 02:39:06;;;;;;;22.08;9.20;;;9.90;99.90;;;;;;4985625;28;20034;-78
2023/11/15 02:41:32;;;;;;;11.05;5.55;;;9.90;99.90;;;;;;4984591;28;20046;-79
2023/11/15 02:43:58;;;;;;;23.33;5.85;;;9.90;99.90;;;;;;4970163;28;20372;-78
2023/11/15 02:46:23;;;;;;;12.60;5.75;;;9.90;99.90;;;;;;4968789;28;20066;-78
2023/11/15 02:48:49;;;;;;;22.85;8.10;;;9.90;99.90;;;;;;5004705;28;20054;-78
2023/11/15 02:51:15;;;;;;;4.82;3.40;;;9.90;99.90;;;;;;4998812;28;20041;-77
2023/11/15 02:53:40;;;;;;;23.08;7.63;;;9.90;99.90;;;;;;4997637;28;20375;-78
2023/11/15 02:56:07;;;;;;;12.60;5.35;;;9.90;99.90;;;;;;4969432;28;20061;-77
2023/11/15 02:58:32;;;;;;;9.30;3.83;;;9.90;99.90;;;;;;4997355;28;20042;-79
2023/11/15 03:00:58;;;;;;;11.85;5.85;;;9.90;99.90;;;;;;4986482;28;20033;-78
2023/11/15 03:03:24;;;;;;;10.80;6.10;;;9.90;99.90;;;;;;4985585;28;20050;-78
2023/11/15 03:05:49;;;;;;;13.55;5.28;;;9.80;99.90;;;;;;4969379;28;20031;-78
2023/11/15 03:08:17;;;;;;;19.08;5.20;;;9.90;99.90;;;;;;4985769;28;20039;-79
2023/11/15 03:10:43;;;;;;;12.90;5.07;;;9.90;99.90;;;;;;4986035;28;20031;-79
2023/11/15 03:13:15;;;;;;;18.10;6.55;;;9.80;99.90;;;;;;4986059;28;20051;-79
2023/11/15 03:15:40;;;;;;;11.55;5.72;;;9.90;99.90;;;;;;4955278;28;20031;-78
2023/11/15 03:18:07;;;;;;;12.88;5.70;;;9.90;99.90;;;;;;4969956;28;20038;-79
2023/11/15 03:20:32;;;;;;;12.15;4.90;;;9.90;99.90;;;;;;4983590;28;20040;-79
2023/11/15 03:22:58;;;;;;;12.07;6.03;;;9.90;99.90;;;;;;4981530;28;20110;-79
2023/11/15 03:25:23;;;;;;;23.27;9.15;;;9.90;99.90;;;;;;4984185;28;20030;-78
2023/11/15 03:27:50;;;;;;;16.48;6.85;;;9.90;99.90;;;;;;4965731;28;20475;-79
2023/11/15 03:30:16;;;;;;;24.08;8.07;;;9.90;99.90;;;;;;4968215;28;20035;-79
2023/11/15 03:32:43;;;;;;;19.75;7.68;;;9.90;99.90;;;;;;4969062;28;20036;-79
2023/11/15 03:35:11;;;;;;;22.90;9.80;;;9.90;99.90;;;;;;4969550;28;20122;-79
2023/11/15 03:37:36;;;;;;;10.82;5.97;;;9.90;99.90;;;;;;4996935;28;20517;-79
2023/11/15 03:40:03;;;;;;;17.23;9.85;;;9.90;99.90;;;;;;4983967;28;20030;-78
2023/11/15 03:42:29;;;;;;;16.33;6.80;;;10.00;99.90;;;;;;4996471;28;20498;-80
2023/11/15 03:44:54;;;;;;;7.78;4.38;;;9.90;99.90;;;;;;4998544;28;20042;-78
2023/11/15 03:47:20;;;;;;;11.85;5.55;;;9.90;99.90;;;;;;4982766;28;20321;-78
2023/11/15 03:49:45;;;;;;;14.30;5.30;;;9.90;99.90;;;;;;4952933;28;20124;-79
2023/11/15 03:52:11;;;;;;;11.52;4.70;;;9.90;99.90;;;;;;4969492;28;20034;-79
2023/11/15 03:54:36;;;;;;;16.67;7.28;;;9.90;99.90;;;;;;4982910;28;20046;-79
2023/11/15 03:57:05;;;;;;;19.73;6.00;;;10.00;99.90;;;;;;4984485;28;20033;-80
2023/11/15 03:59:31;;;;;;;19.38;8.70;;;9.90;99.90;;;;;;4982657;28;20483;-79
2023/11/15 04:01:56;;;;;;;9.02;3.88;;;9.90;99.90;;;;;;4980971;28;20042;-80
2023/11/15 04:04:22;;;;;;;18.95;7.38;;;10.00;99.90;;;;;;4981160;28;20042;-79
2023/11/15 04:06:48;;;;;;;10.50;5.78;;;10.00;99.90;;;;;;4967378;28;20038;-79
2023/11/15 04:09:13;;;;;;;19.77;7.68;;;10.00;99.90;;;;;;4965553;28;20806;-79
2023/11/15 04:11:40;;;;;;;15.13;6.45;;;10.10;99.90;;;;;;4996762;28;20034;-79
2023/11/15 04:14:06;;;;;;;22.77;7.93;;;10.00;99.90;;;;;;4984158;28;20573;-79
2023/11/15 04:16:31;;;;;;;17.85;6.72;;;10.00;99.90;;;;;;4980748;28;20172;-79
2023/11/15 04:18:58;;;;;;;8.85;4.15;;;10.10;99.90;;;;;;4968279;28;20127;-79
2023/11/15 04:21:25;;;;;;;20.30;9.30;;;10.00;99.90;;;;;;4984192;28;20038;-79
2023/11/15 04:23:50;;;;;;;16.13;8.57;;;10.00;99.90;;;;;;4983801;28;20041;-79
2023/11/15 04:26:16;;;;;;;18.58;6.70;;;10.00;99.90;;;;;;4999130;28;20027;-79
2023/11/15 04:28:41;;;;;;;17.02;4.30;;;10.00;99.90;;;;;;4995303;28;20027;-79
2023/11/15 04:31:08;;;;;;;15.07;6.22;;;10.00;99.90;;;;;;5000992;28;20769;-79
2023/11/15 04:33:34;;;;;;;15.75;5.70;;;10.00;99.90;;;;;;4984366;28;20469;-78
2023/11/15 04:36:00;;;;;;;16.40;8.98;;;10.00;99.90;;;;;;4997412;28;20054;-80
2023/11/15 04:38:26;;;;;;;15.50;7.20;;;10.00;99.90;;;;;;4989433;28;20045;-78
2023/11/15 04:40:52;;;;;;;10.93;6.18;;;10.00;99.90;;;;;;4966680;28;20046;-79
2023/11/15 04:43:17;;;;;;;16.75;7.13;;;10.00;99.90;;;;;;4967257;28;20042;-79
2023/11/15 04:45:43;;;;;;;16.50;5.90;;;9.90;99.90;;;;;;4982339;28;20046;-79
2023/11/15 04:48:09;;;;;;;24.17;8.20;;;10.00;99.90;;;;;;4983156;28;20581;-79
2023/11/15 04:50:36;;;;;;;18.75;5.65;;;9.90;99.90;;;;;;4985543;28;20769;-77
2023/11/15 04:53:06;;;;;;;17.00;7.00;;;10.00;99.90;;;;;;4967291;28;20507;-79
2023/11/15 04:55:32;;;;;;;18.63;6.60;;;10.00;99.90;;;;;;4967242;28;20081;-78
2023/11/15 04:57:58;;;;;;;14.98;5.57;;;10.10;99.90;;;;;;4980373;28;20038;-81
2023/11/15 05:00:23;;;;;;;11.20;5.10;;;10.00;99.90;;;;;;4984512;28;20034;-78
2023/11/15 05:02:49;;;;;;;24.45;8.65;;;9.90;99.90;;;;;;4996123;28;20053;-79
2023/11/15 05:05:14;;;;;;;16.33;4.97;;;10.00;99.90;;;;;;4986769;28;20042;-78
2023/11/15 05:07:43;;;;;;;12.43;7.15;;;10.00;99.90;;;;;;5013385;28;20034;-78
2023/11/15 05:10:09;;;;;;;9.23;3.95;;;10.00;99.90;;;;;;4994200;28;20054;-78
2023/11/15 05:12:35;;;;;;;18.80;4.93;;;10.00;99.90;;;;;;4982061;28;20398;-78
2023/11/15 05:15:00;;;;;;;13.70;5.10;;;9.90;99.90;;;;;;4985213;28;20038;-78
2023/11/15 05:17:26;;;;;;;20.90;7.18;;;9.90;99.90;;;;;;4988657;28;20046;-79
2023/11/15 05:19:51;;;;;;;21.13;8.07;;;10.00;99.90;;;;;;4969712;28;20754;-79
2023/11/15 05:22:17;;;;;;;17.33;6.93;;;9.90;99.90;;;;;;4986691;28;20042;-78
2023/11/15 05:24:43;;;;;;;18.77;7.93;;;10.00;99.90;;;;;;4982789;28;20042;-78
2023/11/15 05:27:09;;;;;;;7.63;4.88;;;9.90;99.90;;;;;;4987702;28;20022;-78
2023/11/15 05:29:35;;;;;;;9.52;4.18;;;9.90;99.90;;;;;;4997667;28;20050;-78
2023/11/15 05:32:01;;;;;;;11.13;6.28;;;9.90;99.90;;;;;;4997716;28;20053;-78
2023/11/15 05:34:27;;;;;;;8.35;4.20;;;9.90;99.90;;;;;;4985636;28;20096;-80
2023/11/15 05:36:53;;;;;;;9.55;4.53;;;9.80;99.90;;;;;;4969592;28;20061;-78
2023/11/15 05:39:19;;;;;;;10.70;5.28;;;9.90;99.90;;;;;;4987310;28;20117;-78
2023/11/15 05:41:45;;;;;;;10.70;3.95;;;9.90;99.90;;;;;;4983942;28;20042;-78
2023/11/15 05:44:10;;;;;;;12.65;5.13;;;9.90;99.90;;;;;;4969073;28;20501;-78
2023/11/15 05:46:36;;;;;;;15.50;5.90;;;9.90;99.90;;;;;;4998429;28;20497;-79
2023/11/15 05:49:02;;;;;;;12.02;5.43;;;9.90;99.90;;;;;;4970084;28;20530;-78
2023/11/15 05:51:27;;;;;;;12.82;5.25;;;9.90;99.90;;;;;;4969648;28;20037;-79
2023/11/15 05:53:53;;;;;;;11.88;4.38;;;9.90;99.90;;;;;;4968321;28;20054;-77
2023/11/15 05:56:20;;;;;;;13.10;4.45;;;9.90;99.90;;;;;;5000763;28;20061;-78
2023/11/15 05:58:45;;;;;;;12.95;4.90;;;9.90;99.90;;;;;;4968154;28;20046;-78
2023/11/15 06:01:12;;;;;;;11.30;4.68;;;9.90;99.90;;;;;;5016176;28;20038;-78
2023/11/15 06:03:38;;;;;;;9.95;3.75;;;9.90;99.90;;;;;;4983670;28;20042;-79
2023/11/15 06:06:04;;;;;;;6.53;3.88;;;9.90;99.90;;;;;;4969468;28;20355;-78
2023/11/15 06:08:29;;;;;;;10.85;3.70;;;10.00;99.90;;;;;;4984512;28;20117;-79
2023/11/15 06:10:55;;;;;;;16.83;6.15;;;9.90;99.90;;;;;;4969176;28;20148;-78
2023/11/15 06:13:20;;;;;;;12.30;3.42;;;9.90;99.90;;;;;;5001849;28;20192;-78
2023/11/15 06:15:46;;;;;;;14.20;4.72;;;9.90;99.90;;;;;;5002074;28;20403;-79
2023/11/15 06:18:12;;;;;;;13.15;4.10;;;9.90;99.90;;;;;;4997900;28;20081;-78
2023/11/15 06:20:40;;;;;;;10.55;2.95;;;9.90;99.90;;;;;;5001058;28;20431;-78
2023/11/15 06:23:07;;;;;;;6.15;2.95;;;9.90;99.90;;;;;;4985657;28;20105;-78
2023/11/15 06:25:35;;;;;;;15.38;5.65;;;9.90;99.90;;;;;;4968305;28;20042;-78
2023/11/15 06:28:03;;;;;;;11.10;3.80;;;9.90;99.90;;;;;;4975936;28;20062;-77
2023/11/15 06:30:29;;;;;;;9.18;2.72;;;9.90;99.90;;;;;;4970168;28;20022;-78
2023/11/15 06:32:55;;;;;;;12.68;4.07;;;9.90;99.90;;;;;;4999376;28;20061;-78
2023/11/15 06:35:20;;;;;;;10.40;3.95;;;10.00;99.90;;;;;;4994432;28;20070;-78
2023/11/15 06:37:49;;;;;;;11.02;3.50;;;9.90;99.90;;;;;;4998135;28;20145;-77
2023/11/15 06:40:15;;;;;;;9.50;3.42;;;9.90;99.90;;;;;;4984876;28;20129;-77
2023/11/15 06:42:41;;;;;;;23.50;4.80;;;9.80;99.90;;;;;;4995527;28;20503;-77
2023/11/15 06:45:08;;;;;;;14.77;4.43;;;9.80;99.90;;;;;;4984962;28;20038;-77
2023/11/15 06:47:35;;;;;;;12.65;3.10;;;9.80;99.90;;;;;;4969270;28;20482;-78
2023/11/15 06:50:02;;;;;;;10.15;3.75;;;9.80;99.90;;;;;;4983277;28;20117;-77
2023/11/15 06:52:28;;;;;;;6.10;2.25;;;9.80;99.90;;;;;;4999848;28;20073;-77
2023/11/15 06:54:53;;;;;;;9.55;2.50;;;9.80;99.90;;;;;;4993908;28;20600;-77
2023/11/15 06:57:20;;;;;;;16.08;3.15;;;9.70;99.90;;;;;;4983585;28;20034;-77
2023/11/15 06:59:45;;;;;;;12.13;3.78;;;9.70;99.90;;;;;;4997075;28;20109;-77
2023/11/15 07:02:11;;;;;;;13.63;3.55;;;9.70;99.90;;;;;;4983280;28;20133;-77
2023/11/15 07:04:37;;;;;;;10.70;3.25;;;9.70;99.90;;;;;;4982983;28;20121;-77
2023/11/15 07:07:03;;;;;;;8.60;2.90;;;9.70;99.90;;;;;;4995122;28;20030;-79
2023/11/15 07:09:28;;;;;;;9.93;3.15;;;9.70;99.90;;;;;;4979354;28;20034;-76
2023/11/15 07:11:54;;;;;;;10.90;2.50;;;9.70;99.90;;;;;;4984568;28;20058;-78
2023/11/15 07:14:20;;;;;;;12.80;2.53;;;9.70;99.90;;;;;;4994617;28;20092;-77
2023/11/15 07:16:52;;;;;;;12.40;3.42;;;9.70;99.90;;;;;;4983798;28;20061;-78
2023/11/15 07:19:18;;;;;;;8.90;2.42;;;9.80;99.90;;;;;;4954262;28;20052;-78
2023/11/15 07:21:44;;;;;;;9.88;3.80;;;9.80;99.90;;;;;;4967379;28;20038;-78
2023/11/15 07:24:09;;;;;;;12.43;3.30;;;9.80;99.90;;;;;;4983373;28;20487;-78
2023/11/15 07:26:35;;;;;;;16.20;4.35;;;9.80;99.90;;;;;;4983110;28;20035;-78
2023/11/15 07:29:02;;;;;;;15.60;4.55;;;9.70;99.90;;;;;;4967884;28;20042;-77
2023/11/15 07:31:28;;;;;;;8.52;3.13;;;9.70;99.90;;;;;;4976800;28;20081;-78
2023/11/15 07:33:56;;;;;;;17.67;5.57;;;9.70;99.90;;;;;;4963234;28;20054;-78
2023/11/15 07:36:25;;;;;;;8.48;3.28;;;9.70;99.90;;;;;;5011261;28;20445;-78
2023/11/15 07:38:54;;;;;;;15.25;4.65;;;9.80;99.90;;;;;;4979076;28;20524;-78
2023/11/15 07:41:20;;;;;;;8.45;3.13;;;9.80;99.90;;;;;;4994060;28;20462;-78
2023/11/15 07:43:46;;;;;;;9.80;3.42;;;9.80;99.90;;;;;;5012182;28;20030;-77
2023/11/15 07:46:13;;;;;;;7.05;3.10;;;9.80;99.90;;;;;;4977111;28;20029;-78
2023/11/15 07:48:39;;;;;;;20.38;5.82;;;9.70;99.90;;;;;;4981606;28;20549;-78
2023/11/15 07:51:05;;;;;;;13.27;4.20;;;9.80;99.90;;;;;;4967774;28;20034;-78
2023/11/15 07:53:32;;;;;;;11.68;4.30;;;9.80;99.90;;;;;;4998913;28;20116;-78
2023/11/15 07:55:58;;;;;;;13.52;5.65;;;9.80;99.90;;;;;;4997208;28;20141;-79
2023/11/15 07:58:23;;;;;;;11.15;4.00;;;9.80;99.90;;;;;;4982992;28;20046;-78
2023/11/15 08:00:49;;;;;;;14.18;3.58;;;9.80;99.90;;;;;;4965853;28;20022;-78
2023/11/15 08:03:15;;;;;;;12.25;4.97;;;9.80;99.90;;;;;;4965150;28;20062;-79
2023/11/15 08:05:42;;;;;;;5.97;3.10;;;9.80;99.90;;;;;;4966500;28;20038;-78
2023/11/15 08:08:09;;;;;;;14.45;4.68;;;9.90;99.90;;;;;;4966511;28;20118;-78
2023/11/15 08:10:37;;;;;;;14.98;5.30;;;9.90;99.90;;;;;;4982833;28;20506;-78
2023/11/15 08:13:04;;;;;;;19.98;5.88;;;9.90;99.90;;;;;;5011282;28;20113;-78
2023/11/15 08:15:31;;;;;;;14.73;3.38;;;9.90;99.90;;;;;;4999310;28;20678;-78
2023/11/15 08:17:57;;;;;;;15.88;6.35;;;9.90;99.90;;;;;;4993464;28;20403;-78
2023/11/15 08:20:22;;;;;;;9.90;4.13;;;9.80;99.90;;;;;;4983032;28;20034;-78
2023/11/15 08:22:48;;;;;;;13.48;3.97;;;9.90;99.90;;;;;;4994280;28;20030;-79
2023/11/15 08:25:13;;;;;;;8.38;3.63;;;9.90;99.90;;;;;;5000710;28;20034;-79
2023/11/15 08:27:40;;;;;;;15.55;3.58;;;9.90;99.90;;;;;;4966224;28;20049;-78
2023/11/15 08:30:10;;;;;;;10.20;4.07;;;9.90;99.90;;;;;;4983227;28;20030;-78
2023/11/15 08:32:36;;;;;;;11.70;3.55;;;9.90;99.90;;;;;;4984944;28;20483;-78
2023/11/15 08:35:01;;;;;;;17.13;4.70;;;10.00;99.90;;;;;;4982269;28;20153;-78
2023/11/15 08:37:27;;;;;;;12.63;3.63;;;10.00;99.90;;;;;;4978948;28;20082;-78
2023/11/15 08:39:53;;;;;;;16.80;5.70;;;10.00;99.90;;;;;;4966981;28;20041;-78
2023/11/15 08:42:18;;;;;;;14.40;6.38;;;10.00;99.90;;;;;;4983289;28;20032;-78
2023/11/15 08:44:44;;;;;;;13.63;4.80;;;10.10;99.90;;;;;;4983127;28;20036;-77
2023/11/15 08:47:10;;;;;;;6.35;2.97;;;10.10;99.90;;;;;;4983520;28;20121;-80
2023/11/15 08:49:38;;;;;;;18.65;4.60;;;10.20;99.90;;;;;;4982880;28;20092;-80
2023/11/15 08:52:04;;;;;;;10.38;4.05;;;10.10;99.90;;;;;;4996150;28;20039;-80
2023/11/15 08:54:30;;;;;;;11.98;3.38;;;10.10;99.90;;;;;;4997290;28;20034;-80
2023/11/15 08:56:56;;;;;;;14.35;4.32;;;10.20;99.90;;;;;;4984049;28;20686;-80
2023/11/15 08:59:24;;;;;;;14.52;4.47;;;10.20;99.90;;;;;;4985528;28;20047;-81
2023/11/15 09:01:50;;;;;;;17.33;4.50;;;10.10;99.90;;;;;;4966670;28;20039;-81
2023/11/15 09:04:16;;;;;;;11.95;3.95;;;10.20;99.90;;;;;;4985415;28;20042;-81
2023/11/15 09:06:46;;;;;;;8.98;4.22;;;10.20;99.90;;;;;;4981964;28;20118;-80
2023/11/15 09:09:14;;;;;;;10.82;3.60;;;10.30;99.90;;;;;;4966970;28;20073;-80
2023/11/15 09:11:43;;;;;;;7.03;3.10;;;10.30;99.90;;;;;;4998951;28;20042;-81
2023/11/15 09:14:09;;;;;;;5.38;2.35;;;10.40;99.90;;;;;;4984766;28;20042;-81
2023/11/15 09:16:36;;;;;;;10.95;4.60;;;10.30;99.90;;;;;;4995824;28;20092;-80
2023/11/15 09:19:04;;;;;;;15.25;4.60;;;10.40;99.90;;;;;;4993931;28;20122;-81
2023/11/15 09:21:32;;;;;;;11.93;3.05;;;10.40;99.90;;;;;;4998341;28;20042;-80
2023/11/15 09:23:58;;;;;;;11.07;3.08;;;10.60;99.90;;;;;;4983754;28;20049;-80
2023/11/15 09:26:24;;;;;;;7.32;2.83;;;10.50;99.90;;;;;;4967337;28;20030;-81
2023/11/15 09:28:51;;;;;;;12.77;3.35;;;10.60;99.90;;;;;;4983587;28;20509;-80
2023/11/15 09:31:17;;;;;;;12.77;4.30;;;10.70;99.90;;;;;;4968231;28;20034;-81
2023/11/15 09:33:44;;;;;;;13.68;4.65;;;10.80;99.90;;;;;;4984228;28;20514;-80
2023/11/15 09:36:10;;;;;;;5.30;2.38;;;10.80;99.90;;;;;;5005491;28;20043;-79
2023/11/15 09:38:43;;;;;;;19.40;4.43;;;10.90;99.90;;;;;;4981484;28;20038;-81
2023/11/15 09:41:11;;;;;;;11.95;4.22;;;11.00;99.90;;;;;;4982351;28;20027;-79
2023/11/15 09:43:41;;;;;;;7.22;3.38;;;11.10;99.90;;;;;;4994974;28;20450;-80
2023/11/15 09:46:09;;;;;;;11.45;3.95;;;11.00;99.90;;;;;;4995291;28;20101;-79
2023/11/15 09:48:35;;;;;;;14.55;5.13;;;10.80;99.90;;;;;;4966116;28;20062;-79
2023/11/15 09:51:01;;;;;;;10.25;4.65;;;10.80;99.90;;;;;;4971639;28;20577;-78
2023/11/15 09:53:27;;;;;;;7.03;3.40;;;10.70;99.90;;;;;;4990629;28;20062;-80
2023/11/15 09:55:53;;;;;;;8.13;2.42;;;10.70;99.90;;;;;;4983073;28;20459;-79
2023/11/15 09:58:18;;;;;;;10.75;4.47;;;10.60;99.90;;;;;;4982771;28;20039;-79
2023/11/15 10:00:46;;;;;;;12.73;3.17;;;10.60;99.90;;;;;;4982698;28;20119;-79
2023/11/15 10:03:12;;;;;;;11.68;3.42;;;10.60;99.90;;;;;;4998742;28;20577;-80
2023/11/15 10:05:39;;;;;;;15.82;4.20;;;10.60;99.90;;;;;;4999593;28;20473;-80
2023/11/15 10:08:10;;;;;;;14.43;3.97;;;10.60;99.90;;;;;;4995040;28;20038;-80
2023/11/15 10:10:36;;;;;;;13.57;4.38;;;10.60;99.90;;;;;;4996820;28;20034;-81
2023/11/15 10:13:14;;;;;;;5.80;2.05;;;10.60;99.90;;;;;;4985864;28;20023;-80
2023/11/15 10:15:40;;;;;;;17.80;4.75;;;10.70;99.90;;;;;;4971475;28;20030;-79
2023/11/15 10:18:08;;;;;;;8.02;2.83;;;10.70;99.90;;;;;;4987917;28;20046;-80
2023/11/15 10:20:33;;;;;;;12.40;3.70;;;10.70;99.90;;;;;;4971546;28;20038;-80
2023/11/15 10:22:59;;;;;;;15.35;4.47;;;10.70;99.90;;;;;;4986237;28;20034;-80
2023/11/15 10:25:28;;;;;;;14.05;4.00;;;10.80;99.90;;;;;;4970231;28;20027;-80
2023/11/15 10:28:06;;;;;;;9.45;3.40;;;10.80;99.90;;;;;;4985332;28;20026;-80
2023/11/15 10:30:32;;;;;;;11.25;3.20;;;10.80;99.90;;;;;;4983713;28;20538;-80
2023/11/15 10:33:11;;;;;;;12.82;3.10;;;10.80;99.90;;;;;;4985094;28;20034;-81
2023/11/15 10:35:43;;;;;;;10.73;3.38;;;10.80;99.90;;;;;;4973442;28;20114;-80
2023/11/15 10:38:14;;;;;;;10.15;3.80;;;10.80;99.90;;;;;;4971952;28;20058;-80
2023/11/15 10:40:43;;;;;;;4.25;1.98;;;10.80;99.90;;;;;;4985607;28;20041;-79
2023/11/15 10:43:11;;;;;;;9.57;3.45;;;10.90;99.90;;;;;;4984872;28;20106;-80
2023/11/15 10:45:38;;;;;;;10.98;4.35;;;11.00;99.90;;;;;;4998862;28;20297;-80
2023/11/15 10:48:04;;;;;;;4.07;2.17;;;11.00;99.90;;;;;;4982890;28;20027;-80
2023/11/15 10:50:35;;;;;;;13.13;3.83;;;11.00;99.90;;;;;;4952512;28;20080;-79
2023/11/15 10:53:02;;;;;;;7.90;2.60;;;11.10;99.90;;;;;;4985980;28;20575;-79
2023/11/15 10:55:30;;;;;;;15.60;3.55;;;11.10;99.90;;;;;;4969570;28;20764;-80
2023/11/15 10:58:00;;;;;;;31.13;3.20;;;11.20;99.90;;;;;;5015981;28;20030;-80
2023/11/15 11:00:29;;;;;;;7.15;3.17;;;11.10;99.90;;;;;;5015479;28;20589;-79
2023/11/15 11:02:55;;;;;;;11.15;2.55;;;11.00;99.90;;;;;;5013526;28;20454;-80
2023/11/15 11:05:29;;;;;;;4.78;3.05;;;11.10;99.90;;;;;;4969103;28;20895;-80
2023/11/15 11:08:02;;;;;;;13.52;3.53;;;11.20;99.90;;;;;;4984209;28;20490;-80
2023/11/15 11:10:38;;;;;;;6.93;2.72;;;11.20;99.90;;;;;;4999591;28;20026;-79
2023/11/15 11:13:17;;;;;;;15.07;3.58;;;11.30;99.90;;;;;;4996291;28;20082;-80
2023/11/15 11:15:44;;;;;;;11.93;3.03;;;11.40;99.90;;;;;;4956730;28;20069;-80
2023/11/15 11:18:13;;;;;;;5.20;1.92;;;11.40;99.90;;;;;;4983119;28;20022;-80
2023/11/15 11:20:41;;;;;;;8.07;3.05;;;11.30;99.90;;;;;;5017010;28;20121;-80
2023/11/15 11:23:11;;;;;;;12.75;3.28;;;11.30;99.90;;;;;;5002485;28;20580;-80
2023/11/15 11:25:40;;;;;;;13.07;3.78;;;11.40;99.90;;;;;;4971936;28;20057;-80
2023/11/15 11:28:09;;;;;;;13.77;3.78;;;11.40;99.90;;;;;;4982279;28;20023;-80
2023/11/15 11:30:34;;;;;;;14.57;3.38;;;11.60;99.90;;;;;;4984391;28;20445;-80
2023/11/15 11:33:13;;;;;;;10.68;3.83;;;11.60;99.90;;;;;;4989440;28;20029;-80
2023/11/15 11:35:40;;;;;;;11.55;2.60;;;11.70;99.90;;;;;;4993591;28;20058;-80
2023/11/15 11:38:06;;;;;;;12.05;2.90;;;11.70;99.90;;;;;;4983898;28;20030;-80
2023/11/15 11:40:39;;;;;;;8.68;2.97;;;11.70;99.90;;;;;;4970043;28;20037;-81
2023/11/15 11:43:11;;;;;;;12.23;2.72;;;11.70;99.90;;;;;;4999831;28;20022;-81
2023/11/15 11:45:37;;;;;;;8.48;2.50;;;11.70;99.90;;;;;;4984893;28;20084;-81
2023/11/15 11:48:02;;;;;;;6.57;2.13;;;11.70;99.90;;;;;;4968712;28;20038;-80
2023/11/15 11:50:28;;;;;;;6.93;3.03;;;11.80;99.90;;;;;;4983004;28;20058;-80
2023/11/15 11:52:54;;;;;;;7.85;2.05;;;11.90;99.90;;;;;;4967299;28;20088;-79
2023/11/15 11:55:19;;;;;;;12.98;3.40;;;12.00;99.90;;;;;;5015345;28;20170;-81
2023/11/15 11:57:51;;;;;;;8.65;2.53;;;12.00;99.90;;;;;;4985473;28;20030;-80
2023/11/15 12:00:22;;;;;;;4.38;1.77;;;12.00;99.90;;;;;;4951579;28;20499;-81
2023/11/15 12:02:49;;;;;;;13.93;2.63;;;12.10;99.90;;;;;;5001708;28;20483;-80
2023/11/15 12:05:22;;;;;;;15.63;2.28;;;12.20;99.90;;;;;;4987005;28;20031;-80
2023/11/15 12:07:49;;;;;;;7.82;2.58;;;12.30;99.90;;;;;;4986680;28;20038;-81
2023/11/15 12:10:15;;;;;;;10.27;2.58;;;12.40;99.90;;;;;;5001508;28;20053;-80
2023/11/15 12:13:02;;;;;;;9.68;3.40;;;12.40;99.90;;;;;;4985656;28;20467;-80
2023/11/15 12:15:28;;;;;;;9.55;2.42;;;12.50;99.90;;;;;;4957911;28;20121;-81
2023/11/15 12:17:55;;;;;;;12.60;2.85;;;12.70;99.90;;;;;;4985787;28;20044;-80
2023/11/15 12:20:33;;;;;;;7.80;1.52;;;12.90;99.90;;;;;;4985573;28;20399;-80
2023/11/15 12:23:08;;;;;;;8.00;2.60;;;12.90;99.90;;;;;;4994739;28;20031;-80
2023/11/15 12:25:51;;;;;;;8.30;2.63;;;13.10;99.90;;;;;;4970352;28;20499;-81
2023/11/15 12:28:25;;;;;;;12.75;3.60;;;13.10;99.90;;;;;;4985150;28;20615;-81
2023/11/15 12:30:55;;;;;;;7.85;1.90;;;13.10;99.90;;;;;;5000601;28;20443;-79
2023/11/15 12:33:20;;;;;;;6.38;2.38;;;13.10;99.90;;;;;;4999031;28;20038;-80
2023/11/15 12:35:46;;;;;;;8.13;2.30;;;13.10;99.90;;;;;;4981894;28;20459;-80
2023/11/15 12:38:13;;;;;;;7.30;1.88;;;13.10;99.90;;;;;;4948702;28;20112;-80
2023/11/15 12:40:44;;;;;;;7.28;2.80;;;13.10;99.90;;;;;;4967746;28;20026;-80
2023/11/15 12:43:22;;;;;;;13.60;3.22;;;13.10;99.90;;;;;;4999396;28;20033;-80